logo tempoitalia

Diretta Meteo McAllen Miller, Stati Uniti (USA)lunedì 31 agosto ore 00:53

Mappa
Sereno 30 °C Sereno 24 Ore: T.min 27 T.max 40
Ponente Sud/Sud-Est Km/h 20.3 Punto di rugiada: 25 °C Umidità: 74% Visibilità: 10 Km
Il sole sorge alle: 07:12 Il sole tramonta alle: 19:53
31 Agosto 2026 00:53 tempo osservato: Sereno Sereno 30 74 1014 vento: Nord S/SE 20.3
31 Agosto 2026 00:06 tempo osservato: Nuvoloso Nuvoloso 30 74 1014 vento: Nord SE 27.8
30 Agosto 2026 23:53 tempo osservato: Molto Nuvoloso Molto Nuvoloso 30 74 1014 vento: Nord SE 20.3
30 Agosto 2026 22:53 tempo osservato: Sereno Sereno 30 70 1014 vento: Nord SE 22.2
30 Agosto 2026 21:53 tempo osservato: Sereno Sereno 31 62 1013 vento: Nord SE 33.3
30 Agosto 2026 20:53 tempo osservato: Sereno Sereno 32 59 1012 vento: Nord SE 31.5
30 Agosto 2026 19:53 tempo osservato: Sereno Sereno 34 49 1011 vento: Nord SE 35.2
30 Agosto 2026 18:53 tempo osservato: Sereno Sereno 36 44 1010 vento: Nord E/SE 33.3
30 Agosto 2026 17:53 tempo osservato: Sereno Sereno 38 37 1010 vento: Nord S/SE 29.6
30 Agosto 2026 16:53 tempo osservato: Poco Nuvoloso Poco Nuvoloso 39 31 1010 vento: Nord SE 27.8
30 Agosto 2026 15:53 tempo osservato: Nuvoloso Nuvoloso 40 33 1011 vento: Nord E/SE 27.8
30 Agosto 2026 14:53 tempo osservato: Sereno Sereno 39 33 1012 vento: Nord S/SE 22.2
30 Agosto 2026 13:53 tempo osservato: Sereno Sereno 39 33 1013 vento: Nord SE 22.2
30 Agosto 2026 12:53 tempo osservato: Sereno Sereno 38 35 1014 vento: Nord S 18.5
30 Agosto 2026 11:53 tempo osservato: Sereno Sereno 36 44 1015 vento: Nord S/SE 25.9
30 Agosto 2026 10:53 tempo osservato: Sereno Sereno 34 52 1015 vento: Nord SE 27.8
30 Agosto 2026 09:53 tempo osservato: Sereno Sereno 32 62 1015 vento: Nord S/SE 18.5
30 Agosto 2026 08:53 tempo osservato: Sereno Sereno 29 79 1015 vento: Nord SE 18.5
30 Agosto 2026 07:53 tempo osservato: Sereno Sereno 28 83 1014 vento: Nord E/SE 14.8
30 Agosto 2026 06:53 tempo osservato: Sereno Sereno 27 83 1014 vento: Nord E/SE 13
30 Agosto 2026 05:53 tempo osservato: Sereno Sereno 27 83 1014 vento: Nord SE 13
30 Agosto 2026 04:53 tempo osservato: Sereno Sereno 28 78 1014 vento: Nord SE 13
30 Agosto 2026 03:53 tempo osservato: Sereno Sereno 28 83 1014 vento: Nord S/SE 11.1
30 Agosto 2026 02:53 tempo osservato: Sereno Sereno 28 83 1015 vento: Nord S/SE 11.1
30 Agosto 2026 01:53 tempo osservato: Sereno Sereno 29 79 1015 vento: Nord S/SE 11.1